Decoded Metar for LDPL (PULA in CROATIA) (IATA:PUY) | Meteo·Mobile Aviation Weather
aviador You're here:

LDPL Decoded Metar

PULA in CROATIA
Report Time2019-06-16 05:00:00
UTC Time2019-06-16 05:35:32
Flight Rules vfr VFR
WindCalm
Visibility9999 m
Phenomena:N/A
Clouds:N/A
Expected CloudBase > 1,200 ft AGL from Temp-Dew spread
CeilingNone
Temp23°C (ISA +8)
Dew Point20°C (83% RH)
QNH1012 hPa
Density Alt1,529 ft
Elevation207 ft
Report Wrong Elevation
Raw Report
LDPL 160500Z 00000KT CAVOK 23/20 Q1012 NOSIG=

Extra information for LDPL:More info

Metar Taf Metar & Taf Last 4 Metars F.Rules Stats Wind Profile Meteogram Temp Stats Airport Information Weather charts Add Link Nearby VenuesMetar ALERT Operation Metar Decoded Social comments